createdAt,value
2017-12-04T00:00:26.734Z,0.00
2017-12-04T00:01:26.688Z,0.00
2017-12-04T00:02:26.663Z,0.00
2017-12-04T00:03:26.606Z,0.00
2017-12-04T00:04:26.566Z,0.00
2017-12-04T00:05:26.519Z,0.00
2017-12-04T00:06:26.449Z,0.00
2017-12-04T00:07:26.451Z,0.00
2017-12-04T00:08:26.342Z,0.00
2017-12-04T00:09:26.322Z,0.00
2017-12-04T00:10:26.258Z,0.00
2017-12-04T00:11:26.220Z,0.00
2017-12-04T00:12:26.164Z,0.00
2017-12-04T00:13:26.121Z,0.00
2017-12-04T00:14:26.085Z,0.00
2017-12-04T00:15:26.039Z,0.00
2017-12-04T00:16:25.980Z,0.00
2017-12-04T00:17:25.936Z,0.00
2017-12-04T00:18:25.888Z,0.00
2017-12-04T00:19:25.839Z,0.00
2017-12-04T00:20:25.795Z,0.00
2017-12-04T00:21:25.753Z,0.00
2017-12-04T00:22:25.700Z,0.00
2017-12-04T00:23:25.652Z,0.00
2017-12-04T00:24:25.618Z,0.00
2017-12-04T00:25:25.558Z,0.00
2017-12-04T00:26:25.520Z,0.00
2017-12-04T00:27:25.490Z,0.00
2017-12-04T00:28:25.430Z,0.00
2017-12-04T00:29:25.370Z,0.00
2017-12-04T00:30:25.315Z,0.00
2017-12-04T00:31:25.276Z,0.00
2017-12-04T00:32:25.233Z,0.00
2017-12-04T00:33:25.178Z,0.00
2017-12-04T00:34:25.134Z,0.00
2017-12-04T00:35:25.093Z,0.00
2017-12-04T00:36:25.042Z,0.00
2017-12-04T00:37:24.990Z,0.00
2017-12-04T00:38:24.946Z,0.00
2017-12-04T00:39:24.901Z,0.00
2017-12-04T00:40:24.863Z,0.00
2017-12-04T00:41:24.808Z,0.00
2017-12-04T00:42:24.761Z,0.00
2017-12-04T00:43:24.719Z,0.00
2017-12-04T00:44:24.666Z,0.00
2017-12-04T00:45:24.620Z,0.00
2017-12-04T00:46:24.566Z,0.00
2017-12-04T00:47:24.529Z,0.00
2017-12-04T00:48:24.477Z,0.00
2017-12-04T00:49:24.437Z,0.00
2017-12-04T00:50:24.384Z,0.00
2017-12-04T00:51:24.339Z,0.00
2017-12-04T00:52:24.288Z,0.00
2017-12-04T00:53:24.249Z,0.00
2017-12-04T00:54:24.205Z,0.00
2017-12-04T00:55:24.152Z,0.00
2017-12-04T00:56:24.109Z,0.00
2017-12-04T00:57:24.081Z,0.00
2017-12-04T00:58:24.020Z,0.00
2017-12-04T00:59:23.966Z,0.00
2017-12-04T01:00:23.924Z,0.00
2017-12-04T01:01:23.876Z,0.00
2017-12-04T01:02:23.816Z,0.00
2017-12-04T01:03:23.791Z,0.00
2017-12-04T01:04:23.730Z,0.00
2017-12-04T01:05:23.684Z,0.00
2017-12-04T01:06:23.638Z,0.00
2017-12-04T01:07:23.582Z,0.00
2017-12-04T01:08:23.540Z,0.00
2017-12-04T01:09:23.497Z,0.00
2017-12-04T01:10:23.455Z,0.00
2017-12-04T01:11:23.401Z,0.00
2017-12-04T01:12:23.368Z,0.00
2017-12-04T01:13:23.298Z,0.00
2017-12-04T01:14:23.272Z,0.00
2017-12-04T01:15:23.205Z,0.00
2017-12-04T01:16:23.159Z,0.00
2017-12-04T01:17:23.122Z,0.00
2017-12-04T01:18:23.074Z,0.00
2017-12-04T01:19:23.040Z,0.00
2017-12-04T01:20:22.977Z,0.00
2017-12-04T01:21:22.938Z,0.00
2017-12-04T01:22:22.884Z,0.00
2017-12-04T01:23:22.834Z,0.00
2017-12-04T01:25:54.717Z,0.00
2017-12-04T01:26:54.601Z,0.00
2017-12-04T01:28:47.773Z,0.00
2017-12-04T01:29:47.666Z,0.00
2017-12-04T01:31:40.924Z,0.00
2017-12-04T01:32:40.822Z,0.00
2017-12-04T01:34:34.023Z,0.00
2017-12-04T01:35:33.960Z,0.00
2017-12-04T01:37:27.742Z,0.00
2017-12-04T01:38:27.583Z,0.00
2017-12-04T01:40:23.803Z,0.00
2017-12-04T01:41:23.578Z,0.00
2017-12-04T01:43:18.451Z,0.00
2017-12-04T01:44:18.175Z,0.00
2017-12-04T01:46:11.486Z,0.00
2017-12-04T01:47:11.215Z,0.00
2017-12-04T01:49:04.625Z,0.00
2017-12-04T01:50:04.297Z,0.00
2017-12-04T01:51:57.387Z,0.00
2017-12-04T01:52:57.317Z,0.00
2017-12-04T01:54:50.509Z,0.00
2017-12-04T01:55:50.584Z,0.00
2017-12-04T01:57:43.495Z,0.00
2017-12-04T01:58:43.480Z,0.00
2017-12-04T02:00:36.816Z,0.00
2017-12-04T02:01:36.509Z,0.00
2017-12-04T02:03:29.643Z,0.00
2017-12-04T02:04:29.785Z,0.00
2017-12-04T02:06:22.683Z,0.00
2017-12-04T02:07:22.642Z,0.00
2017-12-04T02:09:16.333Z,0.00
2017-12-04T02:10:16.204Z,0.00
2017-12-04T02:12:09.304Z,0.00
2017-12-04T02:13:09.199Z,0.00
2017-12-04T02:15:02.251Z,0.00
2017-12-04T02:16:02.189Z,0.00
2017-12-04T02:17:56.882Z,0.00
2017-12-04T02:18:56.780Z,0.00
2017-12-04T02:20:51.762Z,0.00
2017-12-04T02:21:49.870Z,0.00
2017-12-04T02:22:49.822Z,0.00
2017-12-04T02:23:49.778Z,0.00
2017-12-04T02:24:49.873Z,0.00
2017-12-04T02:25:49.662Z,0.00
2017-12-04T02:26:49.587Z,0.00
2017-12-04T02:27:49.563Z,0.00
2017-12-04T02:28:49.505Z,0.00
2017-12-04T02:29:49.459Z,0.00
2017-12-04T02:30:49.464Z,0.00
2017-12-04T02:31:49.354Z,0.00
2017-12-04T02:32:49.323Z,0.00
2017-12-04T02:33:49.272Z,0.00
2017-12-04T02:34:49.217Z,0.00
2017-12-04T02:35:49.177Z,0.00
2017-12-04T02:36:49.128Z,0.00
2017-12-04T02:37:49.092Z,0.00
2017-12-04T02:38:49.039Z,0.00
2017-12-04T02:39:48.981Z,0.00
2017-12-04T02:40:48.934Z,0.00
2017-12-04T02:41:48.911Z,0.00
2017-12-04T02:42:48.860Z,0.00
2017-12-04T02:43:48.821Z,0.00
2017-12-04T02:44:48.758Z,0.00
2017-12-04T02:45:48.709Z,0.00
2017-12-04T02:46:48.674Z,0.00
2017-12-04T02:47:48.613Z,0.00
2017-12-04T02:48:48.576Z,0.00
2017-12-04T02:49:48.527Z,0.00
2017-12-04T02:50:48.481Z,0.00
2017-12-04T02:51:48.437Z,0.00
2017-12-04T02:52:48.384Z,0.00
2017-12-04T02:53:48.335Z,0.00
2017-12-04T02:54:48.285Z,0.00
2017-12-04T02:55:48.261Z,0.00
2017-12-04T02:56:48.198Z,0.00
2017-12-04T02:57:48.153Z,0.00
2017-12-04T02:58:48.103Z,0.00
2017-12-04T02:59:48.061Z,0.00
2017-12-04T03:00:48.012Z,0.00
2017-12-04T03:01:47.971Z,0.00
2017-12-04T03:02:47.931Z,0.00
2017-12-04T03:03:47.882Z,0.00
2017-12-04T03:04:47.835Z,0.00
2017-12-04T03:05:47.788Z,0.00
2017-12-04T03:06:47.740Z,0.00
2017-12-04T03:07:47.689Z,0.00
2017-12-04T03:08:47.654Z,0.00
2017-12-04T03:09:49.160Z,0.00
2017-12-04T03:10:47.563Z,0.00
2017-12-04T03:11:47.507Z,0.00
2017-12-04T03:12:47.467Z,0.00
2017-12-04T03:13:47.417Z,0.00
2017-12-04T03:14:47.377Z,0.00
2017-12-04T03:15:47.313Z,0.00
2017-12-04T03:16:47.272Z,0.00
2017-12-04T03:17:47.221Z,0.00
2017-12-04T03:18:47.178Z,0.00
2017-12-04T03:19:47.140Z,0.00
2017-12-04T03:20:47.079Z,0.00
2017-12-04T03:21:47.027Z,0.00
2017-12-04T03:22:46.987Z,0.00
2017-12-04T03:23:46.945Z,0.00
2017-12-04T03:24:46.899Z,0.00
2017-12-04T03:25:46.850Z,0.00
2017-12-04T03:26:46.803Z,0.00
2017-12-04T03:27:46.772Z,0.00
2017-12-04T03:28:46.704Z,0.00
2017-12-04T03:29:46.662Z,0.00
2017-12-04T03:30:46.624Z,0.00
2017-12-04T03:31:46.577Z,0.00
2017-12-04T03:32:46.527Z,0.00
2017-12-04T03:33:46.472Z,0.00
2017-12-04T03:34:46.435Z,0.00
2017-12-04T03:35:46.383Z,0.00
2017-12-04T03:36:46.347Z,0.00
2017-12-04T03:37:46.289Z,0.00
2017-12-04T03:38:46.260Z,0.00
2017-12-04T03:39:46.208Z,0.00
2017-12-04T03:40:46.174Z,0.00
2017-12-04T03:41:46.108Z,0.00
2017-12-04T03:42:46.058Z,0.00
2017-12-04T03:43:46.009Z,0.00
2017-12-04T03:44:45.968Z,0.00
2017-12-04T03:45:45.928Z,0.00
2017-12-04T03:46:45.880Z,0.00
2017-12-04T03:47:45.823Z,0.00
2017-12-04T03:48:45.774Z,0.00
2017-12-04T03:49:45.741Z,0.00
2017-12-04T03:50:45.686Z,0.00
2017-12-04T03:51:45.641Z,0.00
2017-12-04T03:52:45.599Z,0.00
2017-12-04T03:53:45.554Z,0.00
2017-12-04T03:54:45.496Z,0.00
2017-12-04T03:55:45.449Z,0.00
2017-12-04T03:56:45.428Z,0.00
2017-12-04T03:57:45.360Z,0.00
2017-12-04T03:58:45.317Z,0.00
2017-12-04T03:59:45.271Z,0.00
2017-12-04T04:00:45.226Z,0.00
2017-12-04T04:01:45.177Z,0.00
2017-12-04T04:02:45.126Z,0.00
2017-12-04T04:03:45.085Z,0.00
2017-12-04T04:04:45.051Z,0.00
2017-12-04T04:05:44.979Z,0.00
2017-12-04T04:06:44.958Z,0.00
2017-12-04T04:07:46.664Z,0.00
2017-12-04T04:08:44.848Z,0.00
2017-12-04T04:09:44.822Z,0.00
2017-12-04T04:10:44.761Z,0.00
2017-12-04T04:11:44.742Z,0.00
2017-12-04T04:12:44.675Z,0.00
2017-12-04T04:13:44.626Z,0.00
2017-12-04T04:14:44.570Z,0.00
2017-12-04T04:15:44.553Z,0.00
2017-12-04T04:16:44.484Z,0.00
2017-12-04T04:17:44.448Z,0.00
2017-12-04T04:18:44.392Z,0.00
2017-12-04T04:19:44.349Z,0.00
2017-12-04T04:20:44.295Z,0.00
2017-12-04T04:21:44.245Z,0.00
2017-12-04T04:22:44.213Z,0.00
2017-12-04T04:23:44.156Z,0.00
2017-12-04T04:24:44.114Z,0.00
2017-12-04T04:25:44.074Z,0.00
2017-12-04T04:26:44.044Z,0.00
2017-12-04T04:27:43.980Z,0.00
2017-12-04T04:28:43.950Z,0.00
2017-12-04T04:29:43.888Z,0.00
2017-12-04T04:30:43.830Z,0.00
2017-12-04T04:31:43.779Z,0.00
2017-12-04T04:32:43.741Z,0.00
2017-12-04T04:33:43.716Z,0.00
2017-12-04T04:34:43.652Z,0.00
2017-12-04T04:35:43.600Z,0.00
2017-12-04T04:36:43.560Z,0.00
2017-12-04T04:37:43.510Z,0.00
2017-12-04T04:38:43.445Z,0.00
2017-12-04T04:39:43.410Z,0.00
2017-12-04T04:40:43.426Z,0.00
2017-12-04T04:41:43.320Z,0.00
2017-12-04T04:42:43.276Z,0.00
2017-12-04T04:43:43.242Z,0.00
2017-12-04T04:44:43.192Z,0.00
2017-12-04T04:45:43.160Z,0.00
2017-12-04T04:46:43.110Z,0.00
2017-12-04T04:47:43.053Z,0.00
2017-12-04T04:48:43.021Z,0.00
2017-12-04T04:49:42.965Z,0.00
2017-12-04T04:50:42.914Z,0.00
2017-12-04T04:51:42.860Z,0.00
2017-12-04T04:52:42.814Z,0.00
2017-12-04T04:53:42.763Z,0.00
2017-12-04T04:54:42.729Z,0.00
2017-12-04T04:55:42.689Z,0.00
2017-12-04T04:56:42.634Z,0.00
2017-12-04T04:57:42.601Z,0.00
2017-12-04T04:58:42.533Z,0.00
2017-12-04T04:59:42.506Z,0.00
2017-12-04T05:00:42.440Z,0.00
2017-12-04T05:01:42.438Z,0.00
2017-12-04T05:02:42.370Z,0.00
2017-12-04T05:03:42.300Z,0.00
2017-12-04T05:04:42.271Z,0.00
2017-12-04T05:05:42.235Z,0.00
2017-12-04T05:06:42.190Z,0.00
2017-12-04T05:07:42.159Z,0.00
2017-12-04T05:08:42.085Z,0.00
2017-12-04T05:09:42.041Z,0.00
2017-12-04T05:10:41.991Z,0.00
2017-12-04T05:11:41.949Z,0.00
2017-12-04T05:12:41.891Z,0.00
2017-12-04T05:13:41.863Z,0.00
2017-12-04T05:14:41.803Z,0.00
2017-12-04T05:15:41.755Z,0.00
2017-12-04T05:16:41.700Z,0.00
2017-12-04T05:17:41.678Z,0.00
2017-12-04T05:18:41.612Z,0.00
2017-12-04T05:19:41.569Z,0.00
2017-12-04T05:20:41.554Z,0.00
2017-12-04T05:21:41.468Z,0.00
2017-12-04T05:22:41.434Z,0.00
2017-12-04T05:23:41.401Z,0.00
2017-12-04T05:24:41.347Z,0.00
2017-12-04T05:25:41.288Z,0.00
2017-12-04T05:26:41.273Z,0.00
2017-12-04T05:27:41.188Z,0.00
2017-12-04T05:28:41.137Z,0.00
2017-12-04T05:29:41.098Z,0.00
2017-12-04T05:30:41.076Z,0.00
2017-12-04T05:31:41.006Z,0.00
2017-12-04T05:32:40.964Z,0.00
2017-12-04T05:33:40.912Z,0.00
2017-12-04T05:34:40.884Z,0.00
2017-12-04T05:35:40.843Z,0.00
2017-12-04T05:36:40.775Z,0.00
2017-12-04T05:37:40.824Z,0.00
2017-12-04T05:38:40.690Z,0.00
2017-12-04T05:39:40.640Z,0.00
2017-12-04T05:40:40.593Z,0.00
2017-12-04T05:41:40.546Z,0.00
2017-12-04T05:42:40.512Z,0.00
2017-12-04T05:43:40.456Z,0.00
2017-12-04T05:44:40.401Z,0.00
2017-12-04T05:45:40.356Z,0.00
2017-12-04T05:46:40.317Z,0.00
2017-12-04T05:47:40.270Z,0.00
2017-12-04T05:48:40.241Z,0.00
2017-12-04T05:49:40.179Z,0.00
2017-12-04T05:50:40.126Z,0.00
2017-12-04T05:51:40.101Z,0.00
2017-12-04T05:52:40.052Z,0.00
2017-12-04T05:53:39.993Z,0.00
2017-12-04T05:54:39.952Z,0.00
2017-12-04T05:55:39.909Z,0.00
2017-12-04T05:56:39.852Z,0.00
2017-12-04T05:57:39.803Z,0.00
2017-12-04T05:58:39.751Z,0.00
2017-12-04T05:59:39.710Z,0.00
2017-12-04T06:00:39.672Z,0.00
2017-12-04T06:01:39.641Z,0.00
2017-12-04T06:02:39.583Z,0.00
2017-12-04T06:03:39.534Z,0.00
2017-12-04T06:04:39.491Z,0.00
2017-12-04T06:05:39.441Z,0.00
2017-12-04T06:06:39.393Z,0.00
2017-12-04T06:07:39.379Z,0.00
2017-12-04T06:08:39.308Z,0.00
2017-12-04T06:09:39.255Z,0.00
2017-12-04T06:10:39.195Z,0.00
2017-12-04T06:11:39.157Z,0.00
2017-12-04T06:12:39.114Z,0.00
2017-12-04T06:13:39.631Z,0.00
2017-12-04T06:14:39.031Z,0.00
2017-12-04T06:15:38.972Z,0.00
2017-12-04T06:16:38.949Z,0.00
2017-12-04T06:17:38.868Z,0.00
2017-12-04T06:18:38.826Z,0.00
2017-12-04T06:19:38.777Z,0.00
2017-12-04T06:20:38.728Z,0.00
2017-12-04T06:21:38.687Z,0.00
2017-12-04T06:22:38.640Z,0.00
2017-12-04T06:23:38.598Z,0.00
2017-12-04T06:24:38.545Z,4.00
2017-12-04T06:25:38.514Z,4.00
2017-12-04T06:26:38.453Z,4.00
2017-12-04T06:27:38.417Z,4.00
2017-12-04T06:28:38.363Z,0.00
2017-12-04T06:29:38.329Z,4.00
2017-12-04T06:30:38.278Z,8.00
2017-12-04T06:31:38.224Z,4.00
2017-12-04T06:32:38.188Z,8.00
2017-12-04T06:33:38.131Z,12.00
2017-12-04T06:34:38.090Z,8.00
2017-12-04T06:35:38.046Z,12.00
2017-12-04T06:36:37.984Z,16.00
2017-12-04T06:37:37.940Z,20.00
2017-12-04T06:38:37.903Z,24.00
2017-12-04T06:39:37.847Z,32.00
2017-12-04T06:40:37.798Z,36.00
2017-12-04T06:41:37.760Z,44.00
2017-12-04T06:42:37.710Z,52.00
2017-12-04T06:43:37.671Z,60.00
2017-12-04T06:44:37.619Z,72.00
2017-12-04T06:45:37.581Z,76.00
2017-12-04T06:46:37.533Z,88.00
2017-12-04T06:47:37.490Z,120.00
2017-12-04T06:48:37.440Z,132.00
2017-12-04T06:49:37.386Z,164.00
2017-12-04T06:50:37.352Z,180.00
2017-12-04T06:51:37.303Z,204.00
2017-12-04T06:52:37.245Z,220.00
2017-12-04T06:53:37.204Z,212.00
2017-12-04T06:54:37.152Z,228.00
2017-12-04T06:55:37.114Z,264.00
2017-12-04T06:56:37.066Z,276.00
2017-12-04T06:57:37.016Z,280.00
2017-12-04T06:58:36.968Z,320.00
2017-12-04T06:59:36.929Z,332.00
2017-12-04T07:00:36.879Z,356.00
2017-12-04T07:01:36.834Z,320.00
2017-12-04T07:02:36.780Z,312.00
2017-12-04T07:03:36.742Z,332.00
2017-12-04T07:04:36.688Z,380.00
2017-12-04T07:05:36.655Z,472.00
2017-12-04T07:06:36.599Z,592.00
2017-12-04T07:07:36.565Z,616.00
2017-12-04T07:08:36.512Z,652.00
2017-12-04T07:09:36.462Z,704.00
2017-12-04T07:10:36.417Z,732.00
2017-12-04T07:11:36.368Z,748.00
2017-12-04T07:12:36.340Z,740.00
2017-12-04T07:13:36.276Z,824.00
2017-12-04T07:14:36.235Z,828.00
2017-12-04T07:15:36.182Z,924.00
2017-12-04T07:16:36.134Z,1040.00
2017-12-04T07:17:36.088Z,1180.00
2017-12-04T07:18:36.052Z,1328.00
2017-12-04T07:19:35.994Z,1336.00
2017-12-04T07:20:35.949Z,1448.00
2017-12-04T07:21:35.911Z,1748.00
2017-12-04T07:22:35.865Z,1872.00
2017-12-04T07:23:35.814Z,1856.00
2017-12-04T07:24:35.784Z,1844.00
2017-12-04T07:25:35.726Z,2136.00
2017-12-04T07:26:35.682Z,2004.00
2017-12-04T07:27:35.642Z,1876.00
2017-12-04T07:28:35.616Z,1624.00
2017-12-04T07:29:35.534Z,1668.00
2017-12-04T07:30:35.512Z,1716.00
2017-12-04T07:31:35.440Z,1640.00
2017-12-04T07:32:35.419Z,1856.00
2017-12-04T07:33:35.363Z,1992.00
2017-12-04T07:34:35.355Z,1996.00
2017-12-04T07:35:35.259Z,2028.00
2017-12-04T07:36:35.216Z,1872.00
2017-12-04T07:37:35.161Z,1620.00
2017-12-04T07:38:35.156Z,1716.00
2017-12-04T07:39:35.083Z,1756.00
2017-12-04T07:40:35.024Z,1520.00
2017-12-04T07:41:36.697Z,1456.00
2017-12-04T07:42:34.931Z,1516.00
2017-12-04T07:43:34.896Z,1572.00
2017-12-04T07:44:34.858Z,1720.00
2017-12-04T07:45:34.807Z,1740.00
2017-12-04T07:46:34.785Z,1328.00
2017-12-04T07:47:34.718Z,1456.00
2017-12-04T07:48:34.681Z,1588.00
2017-12-04T07:49:34.631Z,1976.00
2017-12-04T07:50:34.570Z,1944.00
2017-12-04T07:51:34.527Z,1664.00
2017-12-04T07:52:34.512Z,1776.00
2017-12-04T07:53:34.446Z,1888.00
2017-12-04T07:54:34.388Z,1716.00
2017-12-04T07:55:34.338Z,1620.00
2017-12-04T07:56:34.287Z,1672.00
2017-12-04T07:57:35.307Z,1800.00
2017-12-04T07:58:34.214Z,1996.00
2017-12-04T07:59:34.167Z,2260.00
2017-12-04T08:00:34.113Z,2332.00
2017-12-04T08:01:34.105Z,2268.00
2017-12-04T08:02:34.022Z,2572.00
2017-12-04T08:03:34.013Z,3144.00
2017-12-04T08:04:33.936Z,3720.00
2017-12-04T08:05:34.642Z,4236.00
2017-12-04T08:06:33.834Z,4552.00
2017-12-04T08:07:33.806Z,4880.00
2017-12-04T08:08:33.755Z,4852.00
2017-12-04T08:09:33.711Z,5024.00
2017-12-04T08:10:33.672Z,6060.00
2017-12-04T08:11:33.613Z,6408.00
2017-12-04T08:12:33.573Z,6004.00
2017-12-04T08:13:33.584Z,6088.00
2017-12-04T08:14:33.484Z,5548.00
2017-12-04T08:15:33.426Z,4840.00
2017-12-04T08:16:33.385Z,4432.00
2017-12-04T08:17:33.333Z,3872.00
2017-12-04T08:18:33.295Z,3392.00
2017-12-04T08:19:33.260Z,3616.00
2017-12-04T08:20:33.205Z,3760.00
2017-12-04T08:21:33.162Z,3892.00
2017-12-04T08:22:33.123Z,4228.00
2017-12-04T08:23:34.695Z,4292.00
2017-12-04T08:24:33.020Z,4752.00
2017-12-04T08:25:32.968Z,4864.00
2017-12-04T08:26:32.932Z,4456.00
2017-12-04T08:27:32.889Z,3940.00
2017-12-04T08:28:32.849Z,3928.00
2017-12-04T08:29:32.799Z,3780.00
2017-12-04T08:30:32.748Z,3848.00
2017-12-04T08:31:32.698Z,3724.00
2017-12-04T08:32:32.663Z,3532.00
2017-12-04T08:33:32.599Z,4176.00
2017-12-04T08:34:32.554Z,5036.00
2017-12-04T08:35:32.503Z,4868.00
2017-12-04T08:36:32.475Z,4996.00
2017-12-04T08:37:32.419Z,4920.00
2017-12-04T08:38:32.375Z,4616.00
2017-12-04T08:39:32.343Z,4080.00
2017-12-04T08:40:32.301Z,4100.00
2017-12-04T08:41:32.254Z,4152.00
2017-12-04T08:42:32.198Z,4204.00
2017-12-04T08:43:33.154Z,3960.00
2017-12-04T08:44:32.125Z,4076.00
2017-12-04T08:45:32.071Z,3752.00
2017-12-04T08:46:32.016Z,3372.00
2017-12-04T08:47:32.054Z,2816.00
2017-12-04T08:48:31.940Z,2400.00
2017-12-04T08:49:31.881Z,2244.00
2017-12-04T08:50:32.640Z,2092.00
2017-12-04T08:51:31.802Z,1988.00
2017-12-04T08:52:31.766Z,1848.00
2017-12-04T08:53:31.697Z,1956.00
2017-12-04T08:54:31.653Z,2384.00
2017-12-04T08:55:31.611Z,2640.00
2017-12-04T08:56:31.580Z,2920.00
2017-12-04T08:57:31.572Z,3300.00
2017-12-04T08:58:31.496Z,3164.00
2017-12-04T08:59:32.162Z,3168.00
2017-12-04T09:00:31.398Z,3168.00
2017-12-04T09:01:31.335Z,3380.00
2017-12-04T09:02:31.299Z,3900.00
2017-12-04T09:03:31.246Z,3796.00
2017-12-04T09:04:39.629Z,2960.00
2017-12-04T09:05:31.162Z,2752.00
2017-12-04T09:06:31.119Z,2588.00
2017-12-04T09:07:31.071Z,2292.00
2017-12-04T09:08:31.032Z,1928.00
2017-12-04T09:09:30.972Z,2176.00
2017-12-04T09:10:30.936Z,2616.00
2017-12-04T09:11:30.890Z,2936.00
2017-12-04T09:12:30.833Z,3456.00
2017-12-04T09:13:30.786Z,4296.00
2017-12-04T09:14:30.742Z,4716.00
2017-12-04T09:15:30.691Z,4808.00
2017-12-04T09:16:30.652Z,4924.00
2017-12-04T09:17:30.604Z,5696.00
2017-12-04T09:18:30.560Z,5216.00
2017-12-04T09:19:30.514Z,3844.00
2017-12-04T09:20:30.487Z,2852.00
2017-12-04T09:21:30.428Z,2740.00
2017-12-04T09:22:30.376Z,3436.00
2017-12-04T09:23:30.360Z,3340.00
2017-12-04T09:24:30.298Z,3292.00
2017-12-04T09:25:30.254Z,3688.00
2017-12-04T09:26:30.194Z,3980.00
2017-12-04T09:27:30.166Z,3768.00
2017-12-04T09:28:30.108Z,4132.00
2017-12-04T09:29:30.065Z,4396.00
2017-12-04T09:30:30.030Z,3816.00
2017-12-04T09:31:29.974Z,3136.00
2017-12-04T09:32:29.933Z,3404.00
2017-12-04T09:33:29.897Z,4172.00
2017-12-04T09:34:29.832Z,4428.00
2017-12-04T09:35:29.786Z,4224.00
2017-12-04T09:36:29.735Z,3512.00
2017-12-04T09:37:29.703Z,3748.00
2017-12-04T09:38:29.661Z,4100.00
2017-12-04T09:39:29.613Z,4276.00
2017-12-04T09:40:29.567Z,4252.00
2017-12-04T09:41:29.530Z,4452.00
2017-12-04T09:42:29.481Z,4688.00
2017-12-04T09:43:29.436Z,4588.00
2017-12-04T09:44:29.379Z,4636.00
2017-12-04T09:45:29.334Z,4960.00
2017-12-04T09:46:29.292Z,4852.00
2017-12-04T09:47:29.251Z,5112.00
2017-12-04T09:48:29.190Z,5160.00
2017-12-04T09:49:29.151Z,4696.00
2017-12-04T09:50:29.099Z,4288.00
2017-12-04T09:51:29.065Z,4600.00
2017-12-04T09:52:29.010Z,5048.00
2017-12-04T09:53:28.967Z,5492.00
2017-12-04T09:54:28.915Z,5176.00
2017-12-04T09:55:28.877Z,5304.00
2017-12-04T09:56:28.829Z,5892.00
2017-12-04T09:57:28.835Z,5992.00
2017-12-04T09:58:28.742Z,5488.00
2017-12-04T09:59:28.694Z,5248.00
2017-12-04T10:00:28.659Z,5132.00
2017-12-04T10:01:28.600Z,5532.00
2017-12-04T10:02:28.554Z,5528.00
2017-12-04T10:03:28.517Z,5352.00
2017-12-04T10:04:28.458Z,5360.00
2017-12-04T10:05:28.408Z,5232.00
2017-12-04T10:06:28.373Z,5868.00
2017-12-04T10:07:28.328Z,5236.00
2017-12-04T10:08:28.286Z,4764.00
2017-12-04T10:09:28.248Z,4964.00
2017-12-04T10:10:28.213Z,4944.00
2017-12-04T10:11:28.147Z,4528.00
2017-12-04T10:12:28.098Z,4244.00
2017-12-04T10:13:28.101Z,4020.00
2017-12-04T10:14:28.026Z,3444.00
2017-12-04T10:15:27.967Z,2996.00
2017-12-04T10:16:27.932Z,3112.00
2017-12-04T10:17:27.880Z,3552.00
2017-12-04T10:18:27.841Z,3916.00
2017-12-04T10:19:27.806Z,4344.00
2017-12-04T10:20:27.761Z,4772.00
2017-12-04T10:21:27.701Z,4264.00
2017-12-04T10:22:27.661Z,4056.00
2017-12-04T10:23:27.640Z,4300.00
2017-12-04T10:24:27.573Z,5020.00
2017-12-04T10:25:27.514Z,5584.00
2017-12-04T10:26:27.483Z,6024.00
2017-12-04T10:27:27.488Z,5752.00
2017-12-04T10:28:27.398Z,6156.00
2017-12-04T10:29:27.340Z,5804.00
2017-12-04T10:30:27.308Z,6312.00
2017-12-04T10:31:27.240Z,6504.00
2017-12-04T10:32:27.202Z,6800.00
2017-12-04T10:33:27.155Z,6268.00
2017-12-04T10:34:27.126Z,6260.00
2017-12-04T10:35:27.076Z,6376.00
2017-12-04T10:36:27.021Z,6588.00
2017-12-04T10:37:26.973Z,6244.00
2017-12-04T10:38:26.930Z,7244.00
2017-12-04T10:39:26.886Z,7700.00
2017-12-04T10:40:26.844Z,8876.00
2017-12-04T10:41:26.793Z,9016.00
2017-12-04T10:42:26.743Z,8720.00
2017-12-04T10:43:26.705Z,7748.00
2017-12-04T10:44:26.656Z,6836.00
2017-12-04T10:45:26.621Z,6704.00
2017-12-04T10:46:26.560Z,7104.00
2017-12-04T10:47:26.524Z,7000.00
2017-12-04T10:48:26.479Z,6616.00
2017-12-04T10:49:26.459Z,5380.00
2017-12-04T10:50:26.388Z,4376.00
2017-12-04T10:51:26.349Z,4068.00
2017-12-04T10:52:26.305Z,4112.00
2017-12-04T10:53:26.259Z,5112.00
2017-12-04T10:54:26.199Z,4588.00
2017-12-04T10:55:26.156Z,3720.00
2017-12-04T10:56:26.171Z,3068.00
2017-12-04T10:57:26.079Z,2444.00
2017-12-04T10:58:26.028Z,2372.00
2017-12-04T10:59:25.969Z,2512.00
2017-12-04T11:00:25.933Z,3120.00
2017-12-04T11:01:25.890Z,3368.00
2017-12-04T11:02:25.845Z,3856.00
2017-12-04T11:03:25.788Z,4312.00
2017-12-04T11:04:25.758Z,4876.00
2017-12-04T11:05:25.715Z,5392.00
2017-12-04T11:06:25.678Z,5628.00
2017-12-04T11:07:25.718Z,4980.00
2017-12-04T11:08:25.567Z,4688.00
2017-12-04T11:09:25.530Z,4308.00
2017-12-04T11:10:25.478Z,4292.00
2017-12-04T11:11:25.428Z,4400.00
2017-12-04T11:12:25.404Z,4152.00
2017-12-04T11:13:25.338Z,4364.00
2017-12-04T11:14:25.293Z,4048.00
2017-12-04T11:15:25.255Z,3624.00
2017-12-04T11:16:25.212Z,3896.00
2017-12-04T11:17:25.269Z,3832.00
2017-12-04T11:18:25.110Z,3912.00
2017-12-04T11:19:25.070Z,3672.00
2017-12-04T11:20:25.036Z,3216.00
2017-12-04T11:21:24.980Z,3052.00
2017-12-04T11:22:24.927Z,3972.00
2017-12-04T11:23:24.886Z,4696.00
2017-12-04T11:24:24.836Z,4812.00
2017-12-04T11:25:24.805Z,4460.00
2017-12-04T11:26:24.759Z,4360.00
2017-12-04T11:27:24.713Z,4228.00
2017-12-04T11:28:24.670Z,4208.00
2017-12-04T11:29:24.628Z,4688.00
2017-12-04T11:30:24.568Z,5136.00
2017-12-04T11:31:24.534Z,4960.00
2017-12-04T11:32:24.471Z,5440.00
2017-12-04T11:33:24.440Z,5352.00
2017-12-04T11:34:24.381Z,4960.00
2017-12-04T11:35:24.356Z,4796.00
2017-12-04T11:36:24.299Z,4216.00
2017-12-04T11:37:24.251Z,3820.00
2017-12-04T11:38:24.200Z,3676.00
2017-12-04T11:39:24.161Z,3452.00
2017-12-04T11:40:24.109Z,3580.00
2017-12-04T11:41:24.083Z,3624.00
2017-12-04T11:42:24.015Z,3456.00
2017-12-04T11:43:23.980Z,3520.00
2017-12-04T11:45:18.752Z,4784.00
2017-12-04T11:46:18.554Z,5092.00
2017-12-04T11:48:11.860Z,4112.00
2017-12-04T11:49:11.634Z,3104.00
2017-12-04T11:51:04.976Z,2656.00
2017-12-04T11:52:04.781Z,3028.00
2017-12-04T11:53:58.063Z,3364.00
2017-12-04T11:54:57.776Z,3556.00
2017-12-04T11:56:51.657Z,3540.00
2017-12-04T11:57:51.349Z,3424.00
2017-12-04T11:59:56.887Z,3628.00
2017-12-04T12:00:56.613Z,3816.00
2017-12-04T12:02:49.934Z,4304.00
2017-12-04T12:03:49.641Z,4484.00
2017-12-04T12:05:42.893Z,5088.00
2017-12-04T12:06:42.722Z,4496.00
2017-12-04T12:08:37.525Z,3252.00
2017-12-04T12:09:37.250Z,2996.00
2017-12-04T12:11:31.175Z,3956.00
2017-12-04T12:12:30.836Z,4840.00
2017-12-04T12:14:23.959Z,7472.00
2017-12-04T12:15:23.873Z,9420.00
2017-12-04T12:17:16.996Z,13480.00
2017-12-04T12:18:16.948Z,12228.00
2017-12-04T12:20:10.351Z,10344.00
2017-12-04T12:21:10.016Z,8676.00
2017-12-04T12:23:03.446Z,8456.00
2017-12-04T12:24:03.129Z,8048.00
2017-12-04T12:25:57.720Z,7288.00
2017-12-04T12:26:57.696Z,7260.00
2017-12-04T12:28:51.523Z,6748.00
2017-12-04T12:29:51.211Z,8492.00
2017-12-04T12:31:45.929Z,9940.00
2017-12-04T12:32:45.816Z,9344.00
2017-12-04T12:34:38.969Z,8088.00
2017-12-04T12:35:39.095Z,7880.00
2017-12-04T12:37:32.054Z,8588.00
2017-12-04T12:38:31.913Z,8496.00
2017-12-04T12:40:25.376Z,6756.00
2017-12-04T12:41:24.975Z,6132.00
2017-12-04T12:43:18.361Z,6816.00
2017-12-04T12:44:18.028Z,6076.00
2017-12-04T12:46:11.675Z,5588.00
2017-12-04T12:47:11.857Z,5652.00
2017-12-04T12:49:04.982Z,7484.00
2017-12-04T12:50:04.701Z,7340.00
2017-12-04T12:51:58.091Z,6680.00
2017-12-04T12:52:57.706Z,6908.00
2017-12-04T12:54:51.415Z,5516.00
2017-12-04T12:55:52.039Z,5920.00
2017-12-04T12:57:44.682Z,7712.00
2017-12-04T12:58:44.338Z,7260.00
2017-12-04T13:00:38.068Z,4720.00
2017-12-04T13:01:37.927Z,3224.00
2017-12-04T13:03:31.020Z,2648.00
2017-12-04T13:04:31.008Z,2652.00
2017-12-04T13:06:24.137Z,3164.00
2017-12-04T13:07:24.479Z,4464.00
2017-12-04T13:09:17.472Z,3852.00
2017-12-04T13:10:17.104Z,3828.00
2017-12-04T13:12:10.243Z,3348.00
2017-12-04T13:13:10.172Z,3072.00
2017-12-04T13:15:03.607Z,3880.00
2017-12-04T13:16:03.312Z,4284.00
2017-12-04T13:17:56.619Z,4236.00
2017-12-04T13:18:56.246Z,4368.00
2017-12-04T13:20:49.698Z,6220.00
2017-12-04T13:21:49.300Z,5996.00
2017-12-04T13:23:42.763Z,5260.00
2017-12-04T13:24:42.720Z,5756.00
2017-12-04T13:26:35.748Z,5884.00
2017-12-04T13:27:35.469Z,5768.00
2017-12-04T13:29:28.845Z,6148.00
2017-12-04T13:30:28.721Z,5464.00
2017-12-04T13:32:21.908Z,4748.00
2017-12-04T13:33:21.580Z,4268.00